createdAt,value
2022-12-25T00:00:45.912Z,7.61
2022-12-25T00:03:49.446Z,7.64
2022-12-25T00:06:51.910Z,7.32
2022-12-25T00:09:54.636Z,7.66
2022-12-25T00:12:57.064Z,7.69
2022-12-25T00:16:04.857Z,7.75
2022-12-25T00:19:07.369Z,7.64
2022-12-25T00:22:10.042Z,7.63
2022-12-25T00:25:12.655Z,7.61
2022-12-25T00:28:15.347Z,7.66
2022-12-25T00:31:18.135Z,7.81
2022-12-25T00:34:22.014Z,7.84
2022-12-25T00:37:24.494Z,7.86
2022-12-25T00:40:28.796Z,7.86
2022-12-25T00:43:31.213Z,7.86
2022-12-25T00:46:36.290Z,7.88
2022-12-25T00:49:38.861Z,7.87
2022-12-25T00:52:41.843Z,7.89
2022-12-25T00:55:52.104Z,7.92
2022-12-25T00:58:55.612Z,7.90
2022-12-25T01:02:18.177Z,7.89
2022-12-25T01:05:21.040Z,7.91
2022-12-25T01:08:23.460Z,7.99
2022-12-25T01:11:26.305Z,7.85
2022-12-25T01:14:28.612Z,7.98
2022-12-25T01:17:31.305Z,7.89
2022-12-25T01:20:33.668Z,7.71
2022-12-25T01:23:36.748Z,7.89
2022-12-25T01:26:39.055Z,7.92
2022-12-25T01:29:41.793Z,7.77
2022-12-25T01:32:44.260Z,7.92
2022-12-25T01:35:47.765Z,7.87
2022-12-25T01:38:51.684Z,7.89
2022-12-25T01:41:54.323Z,7.90
2022-12-25T01:45:43.819Z,7.84
2022-12-25T01:48:46.728Z,7.91
2022-12-25T01:51:54.464Z,7.91
2022-12-25T01:55:04.073Z,7.73
2022-12-25T01:58:06.696Z,7.86
2022-12-25T02:01:09.422Z,7.85
2022-12-25T02:04:25.163Z,7.84
2022-12-25T02:07:32.428Z,7.83
2022-12-25T02:10:35.447Z,7.80
2022-12-25T02:13:37.856Z,7.66
2022-12-25T02:16:56.798Z,7.64
2022-12-25T02:20:16.054Z,7.77
2022-12-25T02:23:57.057Z,7.77
2022-12-25T02:27:07.257Z,7.73
2022-12-25T02:30:10.945Z,7.68
2022-12-25T02:33:46.136Z,7.66
2022-12-25T02:36:53.885Z,7.65
2022-12-25T02:40:09.570Z,7.68
2022-12-25T02:43:39.511Z,7.53
2022-12-25T02:47:02.623Z,7.70
2022-12-25T02:50:25.808Z,7.65
2022-12-25T02:53:47.508Z,7.66
2022-12-25T02:57:11.633Z,7.66
2022-12-25T03:00:32.997Z,7.54
2022-12-25T03:03:58.747Z,7.60
2022-12-25T03:07:06.226Z,7.62
2022-12-25T03:10:29.392Z,7.64
2022-12-25T03:13:38.220Z,7.66
2022-12-25T03:16:54.099Z,7.67
2022-12-25T03:20:16.648Z,7.67
2022-12-25T03:23:42.916Z,7.66
2022-12-25T03:26:54.972Z,7.66
2022-12-25T03:30:16.254Z,7.54
2022-12-25T03:33:47.070Z,7.61
2022-12-25T03:37:28.606Z,7.57
2022-12-25T03:41:34.911Z,7.67
2022-12-25T03:45:26.558Z,7.66
2022-12-25T03:48:52.413Z,7.61
2022-12-25T03:52:18.254Z,7.52
2022-12-25T03:55:41.991Z,7.51
2022-12-25T03:59:16.526Z,7.37
2022-12-25T04:02:41.600Z,7.48
2022-12-25T04:06:02.745Z,7.46
2022-12-25T04:09:23.638Z,7.46
2022-12-25T04:12:44.758Z,7.45
2022-12-25T04:16:05.968Z,7.41
2022-12-25T04:19:28.573Z,7.46
2022-12-25T04:22:49.728Z,7.43
2022-12-25T04:26:12.103Z,7.31
2022-12-25T04:29:33.179Z,7.26
2022-12-25T04:32:54.994Z,7.39
2022-12-25T04:36:10.117Z,7.37
2022-12-25T04:39:12.877Z,7.21
2022-12-25T04:42:16.930Z,7.23
2022-12-25T04:45:20.727Z,7.37
2022-12-25T04:48:23.839Z,7.17
2022-12-25T04:51:26.502Z,7.21
2022-12-25T04:54:29.697Z,7.33
2022-12-25T04:57:32.898Z,7.34
2022-12-25T05:00:35.276Z,7.28
2022-12-25T05:03:38.940Z,7.20
2022-12-25T05:06:41.441Z,7.30
2022-12-25T05:09:44.117Z,7.18
2022-12-25T05:12:46.558Z,7.33
2022-12-25T05:15:49.761Z,7.28
2022-12-25T05:18:52.394Z,7.24
2022-12-25T05:21:55.357Z,7.22
2022-12-25T05:24:57.903Z,7.06
2022-12-25T05:28:00.854Z,7.08
2022-12-25T05:31:03.517Z,7.06
2022-12-25T05:34:06.322Z,7.03
2022-12-25T05:37:09.487Z,6.93
2022-12-25T05:40:12.213Z,6.76
2022-12-25T05:43:14.589Z,7.00
2022-12-25T05:46:17.893Z,6.78
2022-12-25T05:49:20.462Z,6.96
2022-12-25T05:52:23.464Z,6.98
2022-12-25T05:55:25.867Z,6.98
2022-12-25T05:58:28.654Z,6.95
2022-12-25T06:01:31.144Z,6.78
2022-12-25T06:04:34.182Z,6.87
2022-12-25T06:07:36.516Z,6.83
2022-12-25T06:10:40.233Z,6.76
2022-12-25T06:13:42.852Z,6.67
2022-12-25T06:16:45.763Z,6.62
2022-12-25T06:19:48.171Z,6.64
2022-12-25T06:22:50.839Z,6.57
2022-12-25T06:25:53.331Z,6.51
2022-12-25T06:28:55.980Z,6.56
2022-12-25T06:31:59.068Z,6.62
2022-12-25T06:35:02.386Z,6.51
2022-12-25T06:38:04.769Z,6.49
2022-12-25T06:41:11.183Z,6.56
2022-12-25T06:44:14.413Z,6.60
2022-12-25T06:47:17.616Z,6.58
2022-12-25T06:50:19.916Z,6.57
2022-12-25T06:53:22.575Z,6.32
2022-12-25T06:56:27.949Z,6.49
2022-12-25T06:59:30.634Z,6.48
2022-12-25T07:02:33.604Z,6.46
2022-12-25T07:05:36.438Z,6.52
2022-12-25T07:08:38.820Z,6.59
2022-12-25T07:11:42.437Z,6.28
2022-12-25T07:14:48.809Z,6.57
2022-12-25T07:17:51.635Z,6.66
2022-12-25T07:20:55.837Z,6.69
2022-12-25T07:23:58.573Z,6.70
2022-12-25T07:27:01.020Z,6.72
2022-12-25T07:30:04.306Z,6.41
2022-12-25T07:33:06.859Z,6.64
2022-12-25T07:36:13.429Z,6.85
2022-12-25T07:39:16.403Z,6.86
2022-12-25T07:42:24.817Z,6.95
2022-12-25T07:45:29.839Z,6.97
2022-12-25T07:48:32.968Z,7.02
2022-12-25T07:51:35.384Z,7.09
2022-12-25T07:54:38.096Z,7.17
2022-12-25T07:57:40.430Z,7.26
2022-12-25T08:00:43.129Z,7.21
2022-12-25T08:03:54.476Z,7.45
2022-12-25T08:06:56.977Z,7.55
2022-12-25T08:09:59.851Z,7.67
2022-12-25T08:13:02.305Z,7.61
2022-12-25T08:16:11.042Z,7.84
2022-12-25T08:19:14.974Z,7.93
2022-12-25T08:22:17.707Z,7.97
2022-12-25T08:25:20.057Z,7.99
2022-12-25T08:28:23.935Z,7.91
2022-12-25T08:31:28.822Z,7.97
2022-12-25T08:34:31.554Z,8.07
2022-12-25T08:37:33.935Z,8.11
2022-12-25T08:40:36.655Z,8.21
2022-12-25T08:43:39.514Z,8.30
2022-12-25T08:46:43.745Z,8.52
2022-12-25T08:49:46.235Z,8.70
2022-12-25T08:52:49.297Z,8.78
2022-12-25T08:56:03.770Z,8.92
2022-12-25T08:59:06.526Z,9.32
2022-12-25T09:02:11.858Z,9.56
2022-12-25T09:05:16.975Z,10.03
2022-12-25T09:08:21.717Z,10.38
2022-12-25T09:11:24.549Z,10.75
2022-12-25T09:14:26.913Z,10.93
2022-12-25T09:17:29.553Z,10.81
2022-12-25T09:20:33.037Z,10.66
2022-12-25T09:23:38.938Z,10.41
2022-12-25T09:26:41.350Z,10.31
2022-12-25T09:29:43.997Z,10.20
2022-12-25T09:32:46.390Z,10.15
2022-12-25T09:35:59.401Z,9.93
2022-12-25T09:39:01.971Z,9.97
2022-12-25T09:42:16.927Z,10.05
2022-12-25T09:45:28.645Z,10.40
2022-12-25T09:48:40.369Z,11.47
2022-12-25T09:51:45.422Z,12.46
2022-12-25T09:55:06.431Z,13.24
2022-12-25T09:58:13.621Z,13.56
2022-12-25T10:01:41.270Z,13.42
2022-12-25T10:04:43.922Z,13.40
2022-12-25T10:08:01.657Z,13.69
2022-12-25T10:11:23.400Z,13.86
2022-12-25T10:14:38.821Z,14.13
2022-12-25T10:17:49.920Z,14.40
2022-12-25T10:20:56.667Z,15.54
2022-12-25T10:23:59.320Z,16.05
2022-12-25T10:27:07.356Z,17.17
2022-12-25T10:30:15.934Z,17.76
2022-12-25T10:33:18.713Z,18.25
2022-12-25T10:36:24.940Z,18.95
2022-12-25T10:39:27.548Z,19.21
2022-12-25T10:42:38.734Z,19.71
2022-12-25T10:45:49.645Z,19.93
2022-12-25T10:48:56.834Z,19.86
2022-12-25T10:51:59.427Z,20.11
2022-12-25T10:55:11.961Z,20.24
2022-12-25T10:58:20.602Z,20.37
2022-12-25T11:01:28.363Z,20.93
2022-12-25T11:04:35.651Z,21.11
2022-12-25T11:07:51.322Z,21.11
2022-12-25T11:11:06.593Z,21.72
2022-12-25T11:14:18.698Z,21.65
2022-12-25T11:17:25.088Z,22.09
2022-12-25T11:20:28.227Z,23.00
2022-12-25T11:23:32.852Z,23.58
2022-12-25T11:26:47.548Z,23.76
2022-12-25T11:29:54.180Z,23.83
2022-12-25T11:33:02.405Z,23.29
2022-12-25T11:36:16.431Z,23.47
2022-12-25T11:39:27.862Z,22.56
2022-12-25T11:42:37.161Z,21.95
2022-12-25T11:49:21.633Z,20.07
2022-12-25T11:52:28.031Z,19.83
2022-12-25T11:55:40.977Z,19.21
2022-12-25T11:58:51.899Z,19.40
2022-12-25T12:01:54.867Z,19.60
2022-12-25T12:05:09.246Z,20.24
2022-12-25T12:08:13.934Z,20.63
2022-12-25T12:11:27.278Z,20.94
2022-12-25T12:15:01.950Z,21.10
2022-12-25T12:18:09.036Z,21.08
2022-12-25T12:21:41.228Z,20.76
2022-12-25T12:24:46.290Z,20.83
2022-12-25T12:28:04.548Z,20.68
2022-12-25T12:31:09.442Z,20.98
2022-12-25T12:34:56.642Z,20.88
2022-12-25T12:38:04.521Z,20.67
2022-12-25T12:41:08.667Z,19.36
2022-12-25T12:44:14.426Z,18.33
2022-12-25T12:47:41.149Z,17.48
2022-12-25T12:50:43.879Z,16.74
2022-12-25T12:53:46.381Z,16.11
2022-12-25T12:57:01.166Z,15.75
2022-12-25T13:00:10.902Z,14.98
2022-12-25T13:03:13.815Z,15.25
2022-12-25T13:06:41.681Z,14.89
2022-12-25T13:10:25.767Z,14.74
2022-12-25T13:13:40.901Z,14.53
2022-12-25T13:16:46.642Z,14.22
2022-12-25T13:19:54.973Z,14.16
2022-12-25T13:22:57.684Z,14.00
2022-12-25T13:26:06.707Z,13.88
2022-12-25T13:29:36.690Z,13.80
2022-12-25T13:32:39.157Z,13.54
2022-12-25T13:35:45.430Z,13.62
2022-12-25T13:38:51.114Z,13.57
2022-12-25T13:42:06.898Z,13.52
2022-12-25T13:45:36.407Z,13.43
2022-12-25T13:48:39.158Z,13.37
2022-12-25T13:51:42.274Z,13.15
2022-12-25T13:54:59.370Z,13.15
2022-12-25T13:58:05.683Z,13.19
2022-12-25T14:01:11.784Z,13.14
2022-12-25T14:04:18.715Z,13.09
2022-12-25T14:07:24.186Z,13.02
2022-12-25T14:10:35.556Z,12.99
2022-12-25T14:13:41.912Z,12.92
2022-12-25T14:16:48.879Z,12.70
2022-12-25T14:20:04.084Z,12.82
2022-12-25T14:23:15.915Z,12.72
2022-12-25T14:26:34.127Z,12.66
2022-12-25T14:29:44.711Z,12.55
2022-12-25T14:32:53.501Z,12.50
2022-12-25T14:35:56.838Z,12.44
2022-12-25T14:39:03.004Z,12.29
2022-12-25T14:42:12.928Z,12.36
2022-12-25T14:45:35.010Z,12.27
2022-12-25T14:48:39.053Z,12.14
2022-12-25T14:51:43.283Z,12.15
2022-12-25T14:54:59.965Z,11.95
2022-12-25T14:58:08.115Z,12.03
2022-12-25T15:01:33.464Z,11.96
2022-12-25T15:04:37.009Z,11.83
2022-12-25T15:07:39.959Z,11.88
2022-12-25T15:11:01.015Z,11.83
2022-12-25T15:14:05.196Z,11.71
2022-12-25T15:17:27.404Z,11.64
2022-12-25T15:20:35.421Z,11.57
2022-12-25T15:23:37.748Z,11.46
2022-12-25T15:26:40.407Z,11.39
2022-12-25T15:30:09.309Z,11.32
2022-12-25T15:33:24.465Z,11.09
2022-12-25T15:36:27.743Z,11.15
2022-12-25T15:39:30.396Z,11.09
2022-12-25T15:42:33.238Z,11.09
2022-12-25T15:45:36.029Z,11.02
2022-12-25T15:48:38.408Z,11.03
2022-12-25T15:51:41.899Z,10.91
2022-12-25T15:54:44.221Z,10.95
2022-12-25T15:57:54.656Z,10.93
2022-12-25T16:00:57.029Z,10.86
2022-12-25T16:04:00.004Z,10.80
2022-12-25T16:07:02.430Z,10.82
2022-12-25T16:10:07.557Z,10.79
2022-12-25T16:13:09.851Z,10.80
2022-12-25T16:16:12.509Z,10.78
2022-12-25T16:19:14.886Z,10.70
2022-12-25T16:22:23.185Z,10.79
2022-12-25T16:25:26.120Z,10.65
2022-12-25T16:28:28.793Z,10.80
2022-12-25T16:31:31.243Z,10.62
2022-12-25T16:34:33.973Z,10.77
2022-12-25T16:37:36.510Z,10.80
2022-12-25T16:40:41.798Z,10.62
2022-12-25T16:43:44.418Z,10.78
2022-12-25T16:46:47.695Z,10.75
2022-12-25T16:49:52.378Z,10.73
2022-12-25T16:52:55.082Z,10.57
2022-12-25T16:56:05.989Z,10.70
2022-12-25T16:59:09.253Z,10.72
2022-12-25T17:02:17.398Z,10.72
2022-12-25T17:05:20.163Z,10.64
2022-12-25T17:08:22.509Z,10.69
2022-12-25T17:11:30.273Z,10.69
2022-12-25T17:14:33.960Z,10.68
2022-12-25T17:17:37.554Z,10.65
2022-12-25T17:20:39.994Z,10.65
2022-12-25T17:23:45.031Z,10.47
2022-12-25T17:26:47.925Z,10.65
2022-12-25T17:29:50.573Z,10.63
2022-12-25T17:32:53.139Z,10.61
2022-12-25T17:36:01.862Z,10.62
2022-12-25T17:39:06.505Z,10.57
2022-12-25T17:42:09.165Z,10.57
2022-12-25T17:45:11.909Z,10.54
2022-12-25T17:48:16.094Z,10.40
2022-12-25T17:51:21.436Z,10.51
2022-12-25T17:54:24.092Z,10.48
2022-12-25T17:57:26.422Z,10.47
2022-12-25T18:00:29.120Z,10.43
2022-12-25T18:03:32.059Z,10.14
2022-12-25T18:06:36.209Z,10.29
2022-12-25T18:09:38.919Z,10.32
2022-12-25T18:12:43.609Z,10.14
2022-12-25T18:15:46.437Z,10.25
2022-12-25T18:18:52.382Z,10.11
2022-12-25T18:21:55.549Z,10.06
2022-12-25T18:24:57.866Z,10.07
2022-12-25T18:28:02.619Z,10.06
2022-12-25T18:31:15.865Z,10.05
2022-12-25T18:34:18.536Z,10.16
2022-12-25T18:37:21.375Z,10.16
2022-12-25T18:40:24.547Z,10.16
2022-12-25T18:43:51.499Z,10.02
2022-12-25T18:46:49.506Z,10.16
2022-12-25T18:49:52.932Z,10.15
2022-12-25T18:52:55.617Z,10.16
2022-12-25T18:56:10.898Z,10.17
2022-12-25T18:59:13.513Z,10.19
2022-12-25T19:02:16.798Z,10.09
2022-12-25T19:05:19.463Z,10.19
2022-12-25T19:08:21.930Z,10.09
2022-12-25T19:11:24.700Z,9.60
2022-12-25T19:14:28.398Z,10.08
2022-12-25T19:17:32.152Z,10.23
2022-12-25T19:20:37.843Z,10.25
2022-12-25T19:23:40.604Z,10.28
2022-12-25T19:26:43.853Z,10.23
2022-12-25T19:29:46.814Z,10.17
2022-12-25T19:32:49.321Z,10.31
2022-12-25T19:35:52.113Z,10.23
2022-12-25T19:38:54.453Z,10.20
2022-12-25T19:41:57.056Z,10.18
2022-12-25T19:44:59.601Z,10.21
2022-12-25T19:48:02.212Z,10.26
2022-12-25T19:51:18.047Z,10.41
2022-12-25T19:54:21.397Z,10.29
2022-12-25T19:57:23.711Z,10.39
2022-12-25T20:00:27.345Z,10.39
2022-12-25T20:03:30.288Z,10.35
2022-12-25T20:06:33.876Z,10.36
2022-12-25T20:09:36.515Z,10.34
2022-12-25T20:12:38.975Z,10.20
2022-12-25T20:15:41.718Z,10.27
2022-12-25T20:18:44.358Z,9.94
2022-12-25T20:21:47.826Z,10.16
2022-12-25T20:24:50.209Z,10.30
2022-12-25T20:27:53.763Z,10.14
2022-12-25T20:30:56.485Z,10.27
2022-12-25T20:34:05.921Z,10.19
2022-12-25T20:37:08.374Z,10.14
2022-12-25T20:40:11.797Z,9.91
2022-12-25T20:43:14.117Z,9.91
2022-12-25T20:46:17.066Z,10.04
2022-12-25T20:49:19.426Z,10.04
2022-12-25T20:52:22.022Z,10.05
2022-12-25T20:55:24.410Z,10.05
2022-12-25T20:58:27.457Z,10.03
2022-12-25T21:01:30.906Z,10.07
2022-12-25T21:04:33.747Z,10.05
2022-12-25T21:07:36.216Z,9.98
2022-12-25T21:10:38.842Z,9.98
2022-12-25T21:13:42.899Z,10.00
2022-12-25T21:16:45.574Z,10.00
2022-12-25T21:19:49.261Z,10.02
2022-12-25T21:22:51.847Z,10.02
2022-12-25T21:25:54.898Z,10.06
2022-12-25T21:29:00.449Z,10.05
2022-12-25T21:32:21.739Z,10.05
2022-12-25T21:35:27.198Z,10.08
2022-12-25T21:38:29.861Z,9.51
2022-12-25T21:41:37.867Z,9.48
2022-12-25T21:44:40.287Z,10.11
2022-12-25T21:47:59.790Z,9.73
2022-12-25T21:51:34.412Z,9.61
2022-12-25T21:54:37.616Z,10.12
2022-12-25T21:57:40.217Z,9.70
2022-12-25T22:00:43.007Z,9.60
2022-12-25T22:03:46.079Z,9.82
2022-12-25T22:07:12.206Z,10.13
2022-12-25T22:10:15.122Z,9.68
2022-12-25T22:13:36.233Z,9.68
2022-12-25T22:17:00.282Z,9.98
2022-12-25T22:20:03.879Z,10.14
2022-12-25T22:23:07.161Z,9.99
2022-12-25T22:26:20.638Z,10.14
2022-12-25T22:29:25.233Z,10.14
2022-12-25T22:32:28.735Z,9.45
2022-12-25T22:35:31.359Z,9.77
2022-12-25T22:38:34.579Z,10.14
2022-12-25T22:41:37.772Z,10.13
2022-12-25T22:44:40.387Z,10.13
2022-12-25T22:47:43.949Z,10.13
2022-12-25T22:50:46.328Z,10.12
2022-12-25T22:53:50.009Z,9.99
2022-12-25T22:56:53.375Z,9.99
2022-12-25T22:59:56.127Z,10.11
2022-12-25T23:02:58.809Z,10.13
2022-12-25T23:06:01.745Z,9.97
2022-12-25T23:09:05.453Z,9.98
2022-12-25T23:12:27.887Z,9.93
2022-12-25T23:15:30.225Z,10.12
2022-12-25T23:18:51.586Z,10.11
2022-12-25T23:22:12.527Z,9.92
2022-12-25T23:25:34.466Z,10.08
2022-12-25T23:28:57.400Z,10.08
2022-12-25T23:32:00.238Z,9.91
2022-12-25T23:35:03.279Z,10.06
2022-12-25T23:38:05.918Z,9.90
2022-12-25T23:41:08.220Z,10.02
2022-12-25T23:44:12.910Z,10.00
2022-12-25T23:47:15.319Z,9.99
2022-12-25T23:50:17.925Z,9.95
2022-12-25T23:53:20.378Z,9.73
2022-12-25T23:56:23.431Z,9.72
2022-12-25T23:59:28.096Z,9.38
